sensor_id;sensor_type;location;lat;lon;timestamp;P1;durP1;ratioP1;P2;durP2;ratioP2
67248;SDS011;63247;54.300;18.592;2022-09-29T00:01:26;27.73;;;12.10;;
67248;SDS011;63247;54.300;18.592;2022-09-29T00:03:51;26.40;;;11.13;;
67248;SDS011;63247;54.300;18.592;2022-09-29T00:06:17;25.65;;;10.55;;
67248;SDS011;63247;54.300;18.592;2022-09-29T00:08:43;23.37;;;10.20;;
67248;SDS011;63247;54.300;18.592;2022-09-29T00:11:11;30.05;;;10.10;;
67248;SDS011;63247;54.300;18.592;2022-09-29T00:13:38;22.75;;;9.70;;
67248;SDS011;63247;54.300;18.592;2022-09-29T00:16:04;22.17;;;8.95;;
67248;SDS011;63247;54.300;18.592;2022-09-29T00:18:30;17.00;;;8.35;;
67248;SDS011;63247;54.300;18.592;2022-09-29T00:21:02;19.42;;;8.70;;
67248;SDS011;63247;54.300;18.592;2022-09-29T00:23:33;18.35;;;8.35;;
67248;SDS011;63247;54.300;18.592;2022-09-29T00:28:25;16.73;;;7.63;;
67248;SDS011;63247;54.300;18.592;2022-09-29T00:30:51;17.50;;;8.03;;
67248;SDS011;63247;54.300;18.592;2022-09-29T00:33:16;17.23;;;7.43;;
67248;SDS011;63247;54.300;18.592;2022-09-29T00:35:42;16.30;;;7.53;;
67248;SDS011;63247;54.300;18.592;2022-09-29T00:38:07;15.57;;;7.23;;
67248;SDS011;63247;54.300;18.592;2022-09-29T00:40:33;14.43;;;7.30;;
67248;SDS011;63247;54.300;18.592;2022-09-29T00:42:59;15.70;;;7.47;;
67248;SDS011;63247;54.300;18.592;2022-09-29T00:45:24;13.80;;;6.80;;
67248;SDS011;63247;54.300;18.592;2022-09-29T00:48:02;18.70;;;6.47;;
67248;SDS011;63247;54.300;18.592;2022-09-29T00:53:08;12.23;;;6.13;;
67248;SDS011;63247;54.300;18.592;2022-09-29T00:55:46;10.63;;;5.43;;
67248;SDS011;63247;54.300;18.592;2022-09-29T00:58:36;11.18;;;5.28;;
67248;SDS011;63247;54.300;18.592;2022-09-29T01:01:12;11.05;;;5.22;;
67248;SDS011;63247;54.300;18.592;2022-09-29T01:03:39;10.18;;;5.35;;
67248;SDS011;63247;54.300;18.592;2022-09-29T01:06:10;11.15;;;5.40;;
67248;SDS011;63247;54.300;18.592;2022-09-29T01:11:24;11.00;;;5.50;;
67248;SDS011;63247;54.300;18.592;2022-09-29T01:13:50;10.95;;;5.38;;
67248;SDS011;63247;54.300;18.592;2022-09-29T01:16:17;12.57;;;5.65;;
67248;SDS011;63247;54.300;18.592;2022-09-29T01:18:42;12.33;;;5.50;;
67248;SDS011;63247;54.300;18.592;2022-09-29T01:27:17;11.38;;;5.45;;
67248;SDS011;63247;54.300;18.592;2022-09-29T01:35:08;10.57;;;5.47;;
67248;SDS011;63247;54.300;18.592;2022-09-29T01:43:41;11.30;;;5.77;;
67248;SDS011;63247;54.300;18.592;2022-09-29T01:46:13;11.52;;;5.70;;
67248;SDS011;63247;54.300;18.592;2022-09-29T01:49:00;11.27;;;5.72;;
67248;SDS011;63247;54.300;18.592;2022-09-29T01:51:29;11.02;;;5.90;;
67248;SDS011;63247;54.300;18.592;2022-09-29T01:54:08;13.45;;;6.35;;
67248;SDS011;63247;54.300;18.592;2022-09-29T01:56:41;11.23;;;5.70;;
67248;SDS011;63247;54.300;18.592;2022-09-29T01:59:21;11.85;;;5.93;;
67248;SDS011;63247;54.300;18.592;2022-09-29T02:02:02;11.10;;;5.82;;
67248;SDS011;63247;54.300;18.592;2022-09-29T02:04:36;12.35;;;6.35;;
67248;SDS011;63247;54.300;18.592;2022-09-29T02:07:07;12.18;;;6.35;;
67248;SDS011;63247;54.300;18.592;2022-09-29T02:09:42;12.53;;;6.33;;
67248;SDS011;63247;54.300;18.592;2022-09-29T02:12:12;12.50;;;6.25;;
67248;SDS011;63247;54.300;18.592;2022-09-29T02:14:44;17.60;;;7.20;;
67248;SDS011;63247;54.300;18.592;2022-09-29T02:17:16;15.05;;;6.47;;
67248;SDS011;63247;54.300;18.592;2022-09-29T02:19:45;12.85;;;6.70;;
67248;SDS011;63247;54.300;18.592;2022-09-29T02:22:13;15.50;;;6.43;;
67248;SDS011;63247;54.300;18.592;2022-09-29T02:24:39;14.10;;;6.13;;
67248;SDS011;63247;54.300;18.592;2022-09-29T02:27:05;14.20;;;7.22;;
67248;SDS011;63247;54.300;18.592;2022-09-29T02:29:32;16.20;;;6.68;;
67248;SDS011;63247;54.300;18.592;2022-09-29T02:32:00;14.97;;;6.60;;
67248;SDS011;63247;54.300;18.592;2022-09-29T02:34:27;13.13;;;6.63;;
67248;SDS011;63247;54.300;18.592;2022-09-29T02:50:35;11.88;;;5.97;;
67248;SDS011;63247;54.300;18.592;2022-09-29T02:59:06;12.17;;;5.43;;
67248;SDS011;63247;54.300;18.592;2022-09-29T03:01:54;12.07;;;5.90;;
67248;SDS011;63247;54.300;18.592;2022-09-29T03:04:22;11.85;;;6.07;;
67248;SDS011;63247;54.300;18.592;2022-09-29T03:06:52;12.15;;;5.88;;
67248;SDS011;63247;54.300;18.592;2022-09-29T03:09:18;10.98;;;5.78;;
67248;SDS011;63247;54.300;18.592;2022-09-29T03:11:43;12.90;;;5.63;;
67248;SDS011;63247;54.300;18.592;2022-09-29T03:14:09;11.27;;;5.73;;
67248;SDS011;63247;54.300;18.592;2022-09-29T03:16:35;13.07;;;6.55;;
67248;SDS011;63247;54.300;18.592;2022-09-29T03:19:01;12.38;;;6.47;;
67248;SDS011;63247;54.300;18.592;2022-09-29T03:21:28;13.60;;;6.38;;
67248;SDS011;63247;54.300;18.592;2022-09-29T03:23:53;12.23;;;6.33;;
67248;SDS011;63247;54.300;18.592;2022-09-29T03:26:19;11.87;;;6.03;;
67248;SDS011;63247;54.300;18.592;2022-09-29T03:28:45;12.00;;;5.88;;
67248;SDS011;63247;54.300;18.592;2022-09-29T03:31:10;13.10;;;6.10;;
67248;SDS011;63247;54.300;18.592;2022-09-29T03:33:36;12.02;;;5.82;;
67248;SDS011;63247;54.300;18.592;2022-09-29T03:36:04;10.20;;;5.50;;
67248;SDS011;63247;54.300;18.592;2022-09-29T03:38:33;10.55;;;5.68;;
67248;SDS011;63247;54.300;18.592;2022-09-29T03:40:59;10.63;;;5.20;;
67248;SDS011;63247;54.300;18.592;2022-09-29T03:43:25;11.63;;;5.23;;
67248;SDS011;63247;54.300;18.592;2022-09-29T03:45:51;10.68;;;5.60;;
67248;SDS011;63247;54.300;18.592;2022-09-29T03:48:18;11.77;;;5.65;;
67248;SDS011;63247;54.300;18.592;2022-09-29T03:50:44;9.93;;;5.63;;
67248;SDS011;63247;54.300;18.592;2022-09-29T03:53:11;10.95;;;5.70;;
67248;SDS011;63247;54.300;18.592;2022-09-29T03:55:37;11.83;;;5.53;;
67248;SDS011;63247;54.300;18.592;2022-09-29T03:58:03;11.20;;;5.60;;
67248;SDS011;63247;54.300;18.592;2022-09-29T04:00:28;10.70;;;5.23;;
67248;SDS011;63247;54.300;18.592;2022-09-29T04:02:54;11.65;;;5.80;;
67248;SDS011;63247;54.300;18.592;2022-09-29T04:05:19;10.73;;;5.60;;
67248;SDS011;63247;54.300;18.592;2022-09-29T04:07:46;11.55;;;5.75;;
67248;SDS011;63247;54.300;18.592;2022-09-29T04:10:11;12.17;;;6.23;;
67248;SDS011;63247;54.300;18.592;2022-09-29T04:12:37;12.05;;;6.18;;
67248;SDS011;63247;54.300;18.592;2022-09-29T04:15:02;10.33;;;5.67;;
67248;SDS011;63247;54.300;18.592;2022-09-29T04:17:28;11.95;;;6.00;;
67248;SDS011;63247;54.300;18.592;2022-09-29T04:19:54;11.23;;;5.77;;
67248;SDS011;63247;54.300;18.592;2022-09-29T04:22:20;11.00;;;5.90;;
67248;SDS011;63247;54.300;18.592;2022-09-29T04:24:45;11.90;;;5.80;;
67248;SDS011;63247;54.300;18.592;2022-09-29T04:27:16;12.02;;;5.72;;
67248;SDS011;63247;54.300;18.592;2022-09-29T04:29:42;17.02;;;6.95;;
67248;SDS011;63247;54.300;18.592;2022-09-29T04:32:07;17.60;;;6.90;;
67248;SDS011;63247;54.300;18.592;2022-09-29T04:34:33;14.87;;;6.77;;
67248;SDS011;63247;54.300;18.592;2022-09-29T04:36:59;13.15;;;6.55;;
67248;SDS011;63247;54.300;18.592;2022-09-29T04:39:25;10.57;;;5.78;;
67248;SDS011;63247;54.300;18.592;2022-09-29T04:41:50;12.00;;;5.57;;
67248;SDS011;63247;54.300;18.592;2022-09-29T04:44:16;12.37;;;5.97;;
67248;SDS011;63247;54.300;18.592;2022-09-29T04:46:44;14.73;;;5.72;;
67248;SDS011;63247;54.300;18.592;2022-09-29T04:49:10;16.25;;;6.40;;
67248;SDS011;63247;54.300;18.592;2022-09-29T04:51:35;13.77;;;6.07;;
67248;SDS011;63247;54.300;18.592;2022-09-29T04:54:01;16.23;;;6.82;;
67248;SDS011;63247;54.300;18.592;2022-09-29T04:56:27;13.83;;;6.73;;
67248;SDS011;63247;54.300;18.592;2022-09-29T04:58:56;13.85;;;6.55;;
67248;SDS011;63247;54.300;18.592;2022-09-29T05:01:22;15.35;;;6.72;;
67248;SDS011;63247;54.300;18.592;2022-09-29T05:03:47;13.33;;;6.67;;
67248;SDS011;63247;54.300;18.592;2022-09-29T05:06:13;15.33;;;7.50;;
67248;SDS011;63247;54.300;18.592;2022-09-29T05:08:38;16.00;;;7.20;;
67248;SDS011;63247;54.300;18.592;2022-09-29T05:11:04;19.23;;;8.30;;
67248;SDS011;63247;54.300;18.592;2022-09-29T05:13:31;20.50;;;8.50;;
67248;SDS011;63247;54.300;18.592;2022-09-29T05:15:56;17.83;;;7.37;;
67248;SDS011;63247;54.300;18.592;2022-09-29T05:18:23;17.17;;;7.80;;
67248;SDS011;63247;54.300;18.592;2022-09-29T05:20:49;15.73;;;7.87;;
67248;SDS011;63247;54.300;18.592;2022-09-29T05:23:14;16.77;;;7.60;;
67248;SDS011;63247;54.300;18.592;2022-09-29T05:25:40;18.53;;;7.57;;
67248;SDS011;63247;54.300;18.592;2022-09-29T05:28:05;16.02;;;7.97;;
67248;SDS011;63247;54.300;18.592;2022-09-29T05:30:32;15.13;;;7.35;;
67248;SDS011;63247;54.300;18.592;2022-09-29T05:32:58;14.52;;;7.05;;
67248;SDS011;63247;54.300;18.592;2022-09-29T05:35:23;13.80;;;6.37;;
67248;SDS011;63247;54.300;18.592;2022-09-29T05:37:49;13.90;;;6.53;;
67248;SDS011;63247;54.300;18.592;2022-09-29T05:40:15;14.02;;;6.45;;
67248;SDS011;63247;54.300;18.592;2022-09-29T05:42:41;14.40;;;6.33;;
67248;SDS011;63247;54.300;18.592;2022-09-29T05:45:07;16.35;;;6.70;;
67248;SDS011;63247;54.300;18.592;2022-09-29T05:47:34;14.50;;;5.88;;
67248;SDS011;63247;54.300;18.592;2022-09-29T05:50:00;11.40;;;5.23;;
67248;SDS011;63247;54.300;18.592;2022-09-29T05:52:27;10.93;;;5.57;;
67248;SDS011;63247;54.300;18.592;2022-09-29T05:54:53;10.18;;;5.18;;
67248;SDS011;63247;54.300;18.592;2022-09-29T05:57:18;10.27;;;4.90;;
67248;SDS011;63247;54.300;18.592;2022-09-29T05:59:44;8.70;;;4.95;;
67248;SDS011;63247;54.300;18.592;2022-09-29T06:02:10;9.05;;;5.03;;
67248;SDS011;63247;54.300;18.592;2022-09-29T06:04:35;11.13;;;5.40;;
67248;SDS011;63247;54.300;18.592;2022-09-29T06:07:01;11.30;;;5.40;;
67248;SDS011;63247;54.300;18.592;2022-09-29T06:09:26;11.30;;;5.22;;
67248;SDS011;63247;54.300;18.592;2022-09-29T06:11:52;10.73;;;5.00;;
67248;SDS011;63247;54.300;18.592;2022-09-29T06:14:17;9.40;;;5.03;;
67248;SDS011;63247;54.300;18.592;2022-09-29T06:16:43;8.03;;;4.73;;
67248;SDS011;63247;54.300;18.592;2022-09-29T06:19:08;8.15;;;4.65;;
67248;SDS011;63247;54.300;18.592;2022-09-29T06:21:34;9.63;;;5.00;;
67248;SDS011;63247;54.300;18.592;2022-09-29T06:24:01;8.70;;;5.05;;
67248;SDS011;63247;54.300;18.592;2022-09-29T06:26:27;10.63;;;5.22;;
67248;SDS011;63247;54.300;18.592;2022-09-29T06:28:54;9.63;;;5.20;;
67248;SDS011;63247;54.300;18.592;2022-09-29T06:31:21;10.45;;;5.78;;
67248;SDS011;63247;54.300;18.592;2022-09-29T06:33:48;13.68;;;5.97;;
67248;SDS011;63247;54.300;18.592;2022-09-29T06:38:58;12.10;;;6.00;;
67248;SDS011;63247;54.300;18.592;2022-09-29T06:41:23;13.13;;;5.75;;
67248;SDS011;63247;54.300;18.592;2022-09-29T06:43:50;11.85;;;6.00;;
67248;SDS011;63247;54.300;18.592;2022-09-29T06:46:15;12.53;;;5.67;;
67248;SDS011;63247;54.300;18.592;2022-09-29T06:48:41;12.10;;;5.90;;
67248;SDS011;63247;54.300;18.592;2022-09-29T06:51:06;10.80;;;5.43;;
67248;SDS011;63247;54.300;18.592;2022-09-29T06:53:33;10.35;;;5.22;;
67248;SDS011;63247;54.300;18.592;2022-09-29T06:55:59;11.38;;;5.00;;
67248;SDS011;63247;54.300;18.592;2022-09-29T06:58:26;9.30;;;4.60;;
67248;SDS011;63247;54.300;18.592;2022-09-29T07:00:51;10.23;;;5.03;;
67248;SDS011;63247;54.300;18.592;2022-09-29T07:03:18;11.02;;;5.88;;
67248;SDS011;63247;54.300;18.592;2022-09-29T07:05:43;15.82;;;7.10;;
67248;SDS011;63247;54.300;18.592;2022-09-29T07:08:09;11.13;;;5.40;;
67248;SDS011;63247;54.300;18.592;2022-09-29T07:10:35;10.77;;;5.40;;
67248;SDS011;63247;54.300;18.592;2022-09-29T07:13:00;12.50;;;5.00;;
67248;SDS011;63247;54.300;18.592;2022-09-29T07:15:26;10.17;;;4.70;;
67248;SDS011;63247;54.300;18.592;2022-09-29T07:17:56;9.43;;;4.70;;
67248;SDS011;63247;54.300;18.592;2022-09-29T07:20:26;16.38;;;4.80;;
67248;SDS011;63247;54.300;18.592;2022-09-29T07:22:52;10.13;;;5.03;;
67248;SDS011;63247;54.300;18.592;2022-09-29T07:25:18;7.90;;;3.93;;
67248;SDS011;63247;54.300;18.592;2022-09-29T07:27:45;7.55;;;4.40;;
67248;SDS011;63247;54.300;18.592;2022-09-29T07:30:11;7.80;;;4.40;;
67248;SDS011;63247;54.300;18.592;2022-09-29T07:32:37;8.43;;;4.38;;
67248;SDS011;63247;54.300;18.592;2022-09-29T07:35:03;8.13;;;4.80;;
67248;SDS011;63247;54.300;18.592;2022-09-29T07:37:29;8.60;;;4.53;;
67248;SDS011;63247;54.300;18.592;2022-09-29T07:39:54;7.07;;;4.10;;
67248;SDS011;63247;54.300;18.592;2022-09-29T07:42:20;8.40;;;4.30;;
67248;SDS011;63247;54.300;18.592;2022-09-29T07:44:46;8.48;;;4.60;;
67248;SDS011;63247;54.300;18.592;2022-09-29T07:47:12;6.43;;;3.90;;
67248;SDS011;63247;54.300;18.592;2022-09-29T07:49:38;6.68;;;3.80;;
67248;SDS011;63247;54.300;18.592;2022-09-29T07:52:07;7.28;;;3.90;;
67248;SDS011;63247;54.300;18.592;2022-09-29T07:54:33;6.28;;;4.10;;
67248;SDS011;63247;54.300;18.592;2022-09-29T07:56:58;6.13;;;4.40;;
67248;SDS011;63247;54.300;18.592;2022-09-29T07:59:28;6.85;;;4.03;;
67248;SDS011;63247;54.300;18.592;2022-09-29T08:01:54;6.82;;;4.28;;
67248;SDS011;63247;54.300;18.592;2022-09-29T08:04:20;6.60;;;4.23;;
67248;SDS011;63247;54.300;18.592;2022-09-29T08:06:46;6.80;;;4.38;;
67248;SDS011;63247;54.300;18.592;2022-09-29T08:09:12;7.37;;;4.10;;
67248;SDS011;63247;54.300;18.592;2022-09-29T08:11:39;6.32;;;4.10;;
67248;SDS011;63247;54.300;18.592;2022-09-29T08:14:06;6.47;;;3.95;;
67248;SDS011;63247;54.300;18.592;2022-09-29T08:16:33;5.85;;;3.85;;
67248;SDS011;63247;54.300;18.592;2022-09-29T08:19:00;6.93;;;3.85;;
67248;SDS011;63247;54.300;18.592;2022-09-29T08:21:26;7.50;;;3.93;;
67248;SDS011;63247;54.300;18.592;2022-09-29T08:23:53;5.57;;;3.95;;
67248;SDS011;63247;54.300;18.592;2022-09-29T08:26:20;7.07;;;4.00;;
67248;SDS011;63247;54.300;18.592;2022-09-29T08:28:46;7.03;;;3.83;;
67248;SDS011;63247;54.300;18.592;2022-09-29T08:31:19;5.17;;;3.70;;
67248;SDS011;63247;54.300;18.592;2022-09-29T08:33:50;5.93;;;4.07;;
67248;SDS011;63247;54.300;18.592;2022-09-29T08:36:16;5.60;;;3.88;;
67248;SDS011;63247;54.300;18.592;2022-09-29T08:38:44;5.10;;;3.35;;
67248;SDS011;63247;54.300;18.592;2022-09-29T08:43:48;6.97;;;3.97;;
67248;SDS011;63247;54.300;18.592;2022-09-29T08:46:27;4.88;;;3.50;;
67248;SDS011;63247;54.300;18.592;2022-09-29T08:48:54;7.32;;;3.50;;
67248;SDS011;63247;54.300;18.592;2022-09-29T08:51:34;6.10;;;3.53;;
67248;SDS011;63247;54.300;18.592;2022-09-29T08:54:12;6.38;;;3.65;;
67248;SDS011;63247;54.300;18.592;2022-09-29T08:56:44;6.07;;;3.60;;
67248;SDS011;63247;54.300;18.592;2022-09-29T08:59:09;4.88;;;3.60;;
67248;SDS011;63247;54.300;18.592;2022-09-29T09:01:47;6.57;;;3.40;;
67248;SDS011;63247;54.300;18.592;2022-09-29T09:07:07;5.00;;;3.38;;
67248;SDS011;63247;54.300;18.592;2022-09-29T09:15:19;4.90;;;3.30;;
67248;SDS011;63247;54.300;18.592;2022-09-29T09:20:35;4.70;;;3.13;;
67248;SDS011;63247;54.300;18.592;2022-09-29T09:25:38;4.43;;;3.15;;
67248;SDS011;63247;54.300;18.592;2022-09-29T09:28:17;5.88;;;2.80;;
67248;SDS011;63247;54.300;18.592;2022-09-29T09:30:53;4.40;;;2.70;;
67248;SDS011;63247;54.300;18.592;2022-09-29T09:33:29;5.03;;;2.83;;
67248;SDS011;63247;54.300;18.592;2022-09-29T09:36:06;5.15;;;2.85;;
67248;SDS011;63247;54.300;18.592;2022-09-29T09:38:56;5.32;;;3.00;;
67248;SDS011;63247;54.300;18.592;2022-09-29T09:41:25;5.30;;;3.00;;
67248;SDS011;63247;54.300;18.592;2022-09-29T09:44:13;5.15;;;2.83;;
67248;SDS011;63247;54.300;18.592;2022-09-29T09:46:46;5.28;;;3.22;;
67248;SDS011;63247;54.300;18.592;2022-09-29T09:49:35;5.15;;;3.10;;
67248;SDS011;63247;54.300;18.592;2022-09-29T09:52:10;5.35;;;2.70;;
67248;SDS011;63247;54.300;18.592;2022-09-29T09:54:42;6.22;;;2.65;;
67248;SDS011;63247;54.300;18.592;2022-09-29T10:02:53;5.93;;;3.30;;
67248;SDS011;63247;54.300;18.592;2022-09-29T10:05:21;6.22;;;3.08;;
67248;SDS011;63247;54.300;18.592;2022-09-29T10:07:50;8.02;;;3.15;;
67248;SDS011;63247;54.300;18.592;2022-09-29T10:15:32;7.65;;;3.50;;
67248;SDS011;63247;54.300;18.592;2022-09-29T10:18:10;6.55;;;3.20;;
67248;SDS011;63247;54.300;18.592;2022-09-29T10:20:37;6.22;;;3.60;;
67248;SDS011;63247;54.300;18.592;2022-09-29T10:25:54;8.93;;;3.50;;
67248;SDS011;63247;54.300;18.592;2022-09-29T10:28:46;6.07;;;3.30;;
67248;SDS011;63247;54.300;18.592;2022-09-29T10:31:16;5.85;;;3.55;;
67248;SDS011;63247;54.300;18.592;2022-09-29T10:33:45;7.07;;;4.18;;
67248;SDS011;63247;54.300;18.592;2022-09-29T10:36:14;6.60;;;3.90;;
67248;SDS011;63247;54.300;18.592;2022-09-29T10:38:39;9.07;;;3.50;;
67248;SDS011;63247;54.300;18.592;2022-09-29T10:41:11;6.32;;;3.13;;
67248;SDS011;63247;54.300;18.592;2022-09-29T10:43:38;6.60;;;3.23;;
67248;SDS011;63247;54.300;18.592;2022-09-29T10:49:08;6.68;;;3.40;;
67248;SDS011;63247;54.300;18.592;2022-09-29T10:51:39;8.23;;;3.90;;
67248;SDS011;63247;54.300;18.592;2022-09-29T10:54:17;7.38;;;3.65;;
67248;SDS011;63247;54.300;18.592;2022-09-29T10:56:48;7.53;;;3.40;;
67248;SDS011;63247;54.300;18.592;2022-09-29T10:59:14;6.03;;;3.00;;
67248;SDS011;63247;54.300;18.592;2022-09-29T11:01:46;6.38;;;3.30;;
67248;SDS011;63247;54.300;18.592;2022-09-29T11:06:48;7.18;;;3.13;;
67248;SDS011;63247;54.300;18.592;2022-09-29T11:14:25;5.70;;;2.92;;
67248;SDS011;63247;54.300;18.592;2022-09-29T11:16:55;7.28;;;3.22;;
67248;SDS011;63247;54.300;18.592;2022-09-29T11:19:24;10.38;;;4.57;;
67248;SDS011;63247;54.300;18.592;2022-09-29T11:25:35;7.07;;;3.20;;
67248;SDS011;63247;54.300;18.592;2022-09-29T11:36:29;6.82;;;3.10;;
67248;SDS011;63247;54.300;18.592;2022-09-29T11:45:02;7.30;;;2.90;;
67248;SDS011;63247;54.300;18.592;2022-09-29T11:55:24;6.63;;;3.00;;
67248;SDS011;63247;54.300;18.592;2022-09-29T12:00:53;7.95;;;3.00;;
67248;SDS011;63247;54.300;18.592;2022-09-29T12:06:16;5.55;;;2.70;;
67248;SDS011;63247;54.300;18.592;2022-09-29T12:09:52;6.30;;;2.83;;
67248;SDS011;63247;54.300;18.592;2022-09-29T12:15:30;5.45;;;2.80;;
67248;SDS011;63247;54.300;18.592;2022-09-29T12:18:27;6.28;;;3.03;;
67248;SDS011;63247;54.300;18.592;2022-09-29T12:20:59;5.40;;;2.77;;
67248;SDS011;63247;54.300;18.592;2022-09-29T12:23:26;6.95;;;2.70;;
67248;SDS011;63247;54.300;18.592;2022-09-29T12:26:12;6.32;;;2.50;;
67248;SDS011;63247;54.300;18.592;2022-09-29T12:28:52;5.05;;;2.60;;
67248;SDS011;63247;54.300;18.592;2022-09-29T12:31:26;6.05;;;2.90;;
67248;SDS011;63247;54.300;18.592;2022-09-29T12:33:59;6.10;;;3.13;;
67248;SDS011;63247;54.300;18.592;2022-09-29T12:42:36;8.20;;;4.00;;
67248;SDS011;63247;54.300;18.592;2022-09-29T12:45:27;9.85;;;3.88;;
67248;SDS011;63247;54.300;18.592;2022-09-29T12:51:00;7.95;;;3.90;;
67248;SDS011;63247;54.300;18.592;2022-09-29T12:53:34;7.05;;;3.42;;
67248;SDS011;63247;54.300;18.592;2022-09-29T12:56:15;6.60;;;3.30;;
67248;SDS011;63247;54.300;18.592;2022-09-29T12:58:50;7.95;;;3.40;;
67248;SDS011;63247;54.300;18.592;2022-09-29T13:01:41;6.68;;;2.80;;
67248;SDS011;63247;54.300;18.592;2022-09-29T13:12:27;8.52;;;3.33;;
67248;SDS011;63247;54.300;18.592;2022-09-29T13:15:17;6.07;;;3.15;;
67248;SDS011;63247;54.300;18.592;2022-09-29T13:29:02;6.10;;;3.00;;
67248;SDS011;63247;54.300;18.592;2022-09-29T13:31:35;5.82;;;2.95;;
67248;SDS011;63247;54.300;18.592;2022-09-29T13:34:03;5.43;;;2.70;;
67248;SDS011;63247;54.300;18.592;2022-09-29T13:39:00;11.88;;;2.83;;
67248;SDS011;63247;54.300;18.592;2022-09-29T13:46:26;6.47;;;2.20;;
67248;SDS011;63247;54.300;18.592;2022-09-29T13:51:48;6.23;;;2.90;;
67248;SDS011;63247;54.300;18.592;2022-09-29T13:54:32;10.65;;;2.70;;
67248;SDS011;63247;54.300;18.592;2022-09-29T14:05:05;4.53;;;2.20;;
67248;SDS011;63247;54.300;18.592;2022-09-29T14:08:04;7.15;;;2.30;;
67248;SDS011;63247;54.300;18.592;2022-09-29T14:13:00;5.50;;;2.53;;
67248;SDS011;63247;54.300;18.592;2022-09-29T14:15:40;5.20;;;2.40;;
67248;SDS011;63247;54.300;18.592;2022-09-29T14:18:19;4.93;;;2.53;;
67248;SDS011;63247;54.300;18.592;2022-09-29T14:21:10;5.60;;;2.60;;
67248;SDS011;63247;54.300;18.592;2022-09-29T14:29:10;5.85;;;2.63;;
67248;SDS011;63247;54.300;18.592;2022-09-29T14:31:42;5.60;;;2.60;;
67248;SDS011;63247;54.300;18.592;2022-09-29T14:34:10;5.97;;;2.90;;
67248;SDS011;63247;54.300;18.592;2022-09-29T14:36:40;10.23;;;2.97;;
67248;SDS011;63247;54.300;18.592;2022-09-29T14:39:09;5.82;;;2.90;;
67248;SDS011;63247;54.300;18.592;2022-09-29T14:41:42;8.40;;;2.83;;
67248;SDS011;63247;54.300;18.592;2022-09-29T14:44:21;6.30;;;2.97;;
67248;SDS011;63247;54.300;18.592;2022-09-29T14:47:32;6.22;;;2.85;;
67248;SDS011;63247;54.300;18.592;2022-09-29T15:01:25;11.15;;;5.63;;
67248;SDS011;63247;54.300;18.592;2022-09-29T15:03:53;8.13;;;3.57;;
67248;SDS011;63247;54.300;18.592;2022-09-29T15:06:29;7.40;;;3.20;;
67248;SDS011;63247;54.300;18.592;2022-09-29T15:08:59;7.32;;;3.60;;
67248;SDS011;63247;54.300;18.592;2022-09-29T15:13:56;7.77;;;3.53;;
67248;SDS011;63247;54.300;18.592;2022-09-29T15:19:26;8.45;;;3.90;;
67248;SDS011;63247;54.300;18.592;2022-09-29T15:22:17;8.45;;;4.20;;
67248;SDS011;63247;54.300;18.592;2022-09-29T15:25:06;9.02;;;4.22;;
67248;SDS011;63247;54.300;18.592;2022-09-29T15:27:35;9.10;;;4.13;;
67248;SDS011;63247;54.300;18.592;2022-09-29T15:30:03;10.93;;;4.72;;
67248;SDS011;63247;54.300;18.592;2022-09-29T15:32:30;9.88;;;4.80;;
67248;SDS011;63247;54.300;18.592;2022-09-29T15:35:03;10.32;;;4.57;;
67248;SDS011;63247;54.300;18.592;2022-09-29T15:40:13;8.67;;;3.80;;
67248;SDS011;63247;54.300;18.592;2022-09-29T15:42:39;8.70;;;3.67;;
67248;SDS011;63247;54.300;18.592;2022-09-29T15:45:08;8.15;;;3.97;;
67248;SDS011;63247;54.300;18.592;2022-09-29T15:47:41;13.23;;;6.53;;
67248;SDS011;63247;54.300;18.592;2022-09-29T15:50:16;9.13;;;4.75;;
67248;SDS011;63247;54.300;18.592;2022-09-29T15:52:48;10.50;;;4.20;;
67248;SDS011;63247;54.300;18.592;2022-09-29T15:55:18;8.67;;;3.83;;
67248;SDS011;63247;54.300;18.592;2022-09-29T15:57:50;8.23;;;3.85;;
67248;SDS011;63247;54.300;18.592;2022-09-29T16:05:22;8.13;;;3.70;;
67248;SDS011;63247;54.300;18.592;2022-09-29T16:07:54;8.50;;;3.75;;
67248;SDS011;63247;54.300;18.592;2022-09-29T16:10:27;8.00;;;3.47;;
67248;SDS011;63247;54.300;18.592;2022-09-29T16:13:05;7.37;;;3.70;;
67248;SDS011;63247;54.300;18.592;2022-09-29T16:15:42;6.88;;;3.47;;
67248;SDS011;63247;54.300;18.592;2022-09-29T16:18:21;7.35;;;3.50;;
67248;SDS011;63247;54.300;18.592;2022-09-29T16:20:50;7.20;;;3.30;;
67248;SDS011;63247;54.300;18.592;2022-09-29T16:25:44;8.57;;;4.07;;
67248;SDS011;63247;54.300;18.592;2022-09-29T16:28:22;11.07;;;3.90;;
67248;SDS011;63247;54.300;18.592;2022-09-29T16:31:03;6.93;;;3.20;;
67248;SDS011;63247;54.300;18.592;2022-09-29T16:33:34;8.82;;;4.10;;
67248;SDS011;63247;54.300;18.592;2022-09-29T16:36:09;10.23;;;3.58;;
67248;SDS011;63247;54.300;18.592;2022-09-29T16:38:46;6.63;;;3.20;;
67248;SDS011;63247;54.300;18.592;2022-09-29T16:41:19;7.82;;;3.50;;
67248;SDS011;63247;54.300;18.592;2022-09-29T16:49:58;9.50;;;3.92;;
67248;SDS011;63247;54.300;18.592;2022-09-29T16:52:43;9.43;;;4.53;;
67248;SDS011;63247;54.300;18.592;2022-09-29T16:55:15;9.93;;;4.43;;
67248;SDS011;63247;54.300;18.592;2022-09-29T17:00:27;8.95;;;3.97;;
67248;SDS011;63247;54.300;18.592;2022-09-29T17:02:54;10.40;;;4.03;;
67248;SDS011;63247;54.300;18.592;2022-09-29T17:05:22;10.63;;;4.00;;
67248;SDS011;63247;54.300;18.592;2022-09-29T17:07:49;10.85;;;3.75;;
67248;SDS011;63247;54.300;18.592;2022-09-29T17:10:16;11.00;;;4.80;;
67248;SDS011;63247;54.300;18.592;2022-09-29T17:12:44;9.68;;;4.80;;
67248;SDS011;63247;54.300;18.592;2022-09-29T17:15:13;10.80;;;4.50;;
67248;SDS011;63247;54.300;18.592;2022-09-29T17:17:40;9.38;;;4.60;;
67248;SDS011;63247;54.300;18.592;2022-09-29T17:20:17;12.68;;;5.22;;
67248;SDS011;63247;54.300;18.592;2022-09-29T17:22:44;11.45;;;5.35;;
67248;SDS011;63247;54.300;18.592;2022-09-29T17:25:11;12.67;;;4.93;;
67248;SDS011;63247;54.300;18.592;2022-09-29T17:27:37;12.50;;;5.45;;
67248;SDS011;63247;54.300;18.592;2022-09-29T17:30:22;11.27;;;5.22;;
67248;SDS011;63247;54.300;18.592;2022-09-29T17:32:51;11.75;;;5.38;;
67248;SDS011;63247;54.300;18.592;2022-09-29T17:35:19;11.40;;;5.07;;
67248;SDS011;63247;54.300;18.592;2022-09-29T17:37:48;12.57;;;5.88;;
67248;SDS011;63247;54.300;18.592;2022-09-29T17:42:58;11.85;;;5.22;;
67248;SDS011;63247;54.300;18.592;2022-09-29T17:45:25;11.60;;;5.43;;
67248;SDS011;63247;54.300;18.592;2022-09-29T17:47:52;13.97;;;6.30;;
67248;SDS011;63247;54.300;18.592;2022-09-29T17:50:25;13.48;;;6.30;;
67248;SDS011;63247;54.300;18.592;2022-09-29T17:52:52;12.13;;;5.95;;
67248;SDS011;63247;54.300;18.592;2022-09-29T17:55:18;15.95;;;6.53;;
67248;SDS011;63247;54.300;18.592;2022-09-29T17:57:47;14.05;;;6.20;;
67248;SDS011;63247;54.300;18.592;2022-09-29T18:00:18;15.50;;;6.37;;
67248;SDS011;63247;54.300;18.592;2022-09-29T18:02:49;14.52;;;6.13;;
67248;SDS011;63247;54.300;18.592;2022-09-29T18:05:16;15.90;;;6.70;;
67248;SDS011;63247;54.300;18.592;2022-09-29T18:07:50;16.00;;;5.95;;
67248;SDS011;63247;54.300;18.592;2022-09-29T18:10:21;13.20;;;5.90;;
67248;SDS011;63247;54.300;18.592;2022-09-29T18:12:51;13.10;;;6.13;;
67248;SDS011;63247;54.300;18.592;2022-09-29T18:15:17;16.13;;;6.10;;
67248;SDS011;63247;54.300;18.592;2022-09-29T18:17:42;14.90;;;5.67;;
67248;SDS011;63247;54.300;18.592;2022-09-29T18:20:16;13.32;;;6.35;;
67248;SDS011;63247;54.300;18.592;2022-09-29T18:22:44;16.23;;;7.18;;